Time;durP1;ratioP1;P1;durP2;ratioP2;P2;SDS_P1;SDS_P2;PMS_P1;PMS_P2;Temp;Humidity;BMP_temperature;BMP_pressure;BME280_temperature;BME280_humidity;BME280_pressure;Samples;Min_cycle;Max_cycle;Signal;HPM_P1;HPM_P2
2021/12/18 00:01:24;;;;;;;3.77;3.10;;;6.50;99.90;;;;;;5054619;28;20214;-69
2021/12/18 00:03:50;;;;;;;3.93;3.13;;;6.30;99.90;;;;;;5028690;28;20183;-72
2021/12/18 00:06:16;;;;;;;3.13;2.83;;;6.20;99.90;;;;;;5051493;28;20199;-71
2021/12/18 00:08:42;;;;;;;3.63;2.60;;;6.20;99.90;;;;;;5033935;28;20195;-70
2021/12/18 00:11:08;;;;;;;3.03;2.73;;;6.10;99.90;;;;;;5053431;28;20207;-70
2021/12/18 00:13:33;;;;;;;2.70;2.50;;;6.10;99.90;;;;;;5032851;28;20237;-71
2021/12/18 00:15:59;;;;;;;3.67;3.03;;;6.10;99.90;;;;;;5038948;28;20198;-73
2021/12/18 00:18:25;;;;;;;5.50;2.97;;;6.10;99.90;;;;;;5037762;28;20194;-71
2021/12/18 00:20:51;;;;;;;5.70;3.30;;;6.10;99.90;;;;;;5049152;28;20280;-69
2021/12/18 00:23:16;;;;;;;3.30;3.00;;;6.10;99.90;;;;;;5035341;28;20179;-70
2021/12/18 00:25:43;;;;;;;2.87;2.27;;;6.10;99.90;;;;;;5044423;28;20244;-72
2021/12/18 00:28:09;;;;;;;5.17;3.43;;;6.10;99.90;;;;;;5030904;28;20233;-69
2021/12/18 00:30:35;;;;;;;2.83;2.57;;;6.10;99.90;;;;;;5055455;28;20726;-70
2021/12/18 00:33:01;;;;;;;4.50;2.97;;;6.10;99.90;;;;;;5031018;28;20233;-69
2021/12/18 00:35:27;;;;;;;3.70;3.40;;;6.10;99.90;;;;;;5046095;28;20640;-70
2021/12/18 00:37:53;;;;;;;5.50;2.87;;;6.10;99.90;;;;;;5040490;28;20260;-69
2021/12/18 00:40:23;;;;;;;3.43;3.00;;;6.10;99.90;;;;;;5045528;28;20237;-70
2021/12/18 00:45:24;;;;;;;4.63;2.67;;;6.00;99.90;;;;;;5042824;28;20183;-70
2021/12/18 00:47:50;;;;;;;2.80;2.60;;;6.00;99.90;;;;;;5034936;28;20217;-68
2021/12/18 00:50:20;;;;;;;4.10;3.70;;;6.00;99.90;;;;;;5042577;28;20206;-70
2021/12/18 00:52:47;;;;;;;6.80;3.40;;;6.00;99.90;;;;;;5038732;28;20202;-77
2021/12/18 00:55:13;;;;;;;4.63;3.40;;;5.90;99.90;;;;;;5065761;28;20566;-74
2021/12/18 00:57:39;;;;;;;4.20;3.13;;;5.90;99.90;;;;;;5038002;28;20208;-72
2021/12/18 01:00:08;;;;;;;3.47;3.17;;;5.90;99.90;;;;;;5035943;28;20210;-73
2021/12/18 01:02:34;;;;;;;3.07;2.67;;;6.00;99.90;;;;;;5039125;28;20198;-71
2021/12/18 01:04:59;;;;;;;4.40;3.00;;;6.00;99.90;;;;;;5042123;28;20546;-71
2021/12/18 01:07:25;;;;;;;3.27;2.97;;;6.00;99.90;;;;;;5040851;28;20231;-72
2021/12/18 01:10:05;;;;;;;3.40;3.07;;;6.00;99.90;;;;;;5063943;28;20279;-72
2021/12/18 01:12:38;;;;;;;3.67;2.63;;;6.00;99.90;;;;;;5044116;28;20199;-72
2021/12/18 01:15:17;;;;;;;3.03;2.37;;;6.00;99.90;;;;;;5033597;28;20203;-76
2021/12/18 01:23:12;;;;;;;5.10;2.73;;;6.40;99.90;;;;;;5031857;28;20234;-69
2021/12/18 01:25:38;;;;;;;3.23;2.93;;;6.40;99.90;;;;;;5043424;28;20238;-73
2021/12/18 01:28:03;;;;;;;2.83;2.13;;;6.40;99.90;;;;;;5038799;28;20201;-69
2021/12/18 01:30:29;;;;;;;3.03;2.13;;;6.50;99.90;;;;;;5042001;28;20191;-70
2021/12/18 01:32:55;;;;;;;3.07;2.70;;;6.50;99.90;;;;;;5042350;28;20285;-75
2021/12/18 01:35:21;;;;;;;4.33;2.70;;;6.50;99.90;;;;;;5047179;28;20281;-72
2021/12/18 01:37:49;;;;;;;2.63;2.13;;;6.50;99.90;;;;;;5034216;28;20252;-77
2021/12/18 01:40:14;;;;;;;3.33;2.27;;;6.50;99.90;;;;;;5038361;28;20276;-73
2021/12/18 01:45:17;;;;;;;1.60;1.50;;;6.50;99.90;;;;;;5034541;28;20818;-76
2021/12/18 01:53:11;;;;;;;2.83;2.10;;;6.40;99.90;;;;;;5030348;28;20238;-72
2021/12/18 01:55:38;;;;;;;3.27;2.97;;;6.40;99.90;;;;;;5003685;28;20208;-73
2021/12/18 01:58:06;;;;;;;2.93;2.53;;;6.40;99.90;;;;;;5005885;28;20294;-70
2021/12/18 02:00:38;;;;;;;2.93;2.63;;;6.40;99.90;;;;;;5003915;28;20767;-72
2021/12/18 02:03:05;;;;;;;2.27;2.07;;;6.30;99.90;;;;;;5002742;28;20196;-72
2021/12/18 02:05:30;;;;;;;2.93;2.60;;;6.30;99.90;;;;;;5003702;28;20212;-69
2021/12/18 02:07:56;;;;;;;3.53;2.97;;;6.20;99.90;;;;;;5011028;28;20544;-69
2021/12/18 02:10:26;;;;;;;5.07;3.03;;;6.20;99.90;;;;;;5004499;28;20223;-72
2021/12/18 02:21:07;;;;;;;4.00;2.70;;;6.10;99.90;;;;;;5004411;28;20219;-72
2021/12/18 02:23:38;;;;;;;4.03;3.10;;;6.10;99.90;;;;;;5002941;28;20188;-70
2021/12/18 02:26:03;;;;;;;4.03;3.53;;;6.00;99.90;;;;;;5004661;28;20224;-71
2021/12/18 02:28:29;;;;;;;3.10;2.43;;;6.10;99.90;;;;;;5009376;28;20212;-71
2021/12/18 02:30:56;;;;;;;3.83;2.40;;;6.10;99.90;;;;;;5004866;28;20268;-76
2021/12/18 02:33:22;;;;;;;3.80;2.53;;;6.00;99.90;;;;;;5005813;28;20293;-72
2021/12/18 02:35:53;;;;;;;3.97;2.67;;;6.00;99.90;;;;;;5004363;28;20185;-72
2021/12/18 02:38:43;;;;;;;2.63;2.43;;;6.10;99.90;;;;;;5002795;28;20666;-82
2021/12/18 02:41:15;;;;;;;3.00;2.30;;;6.00;99.90;;;;;;5004441;28;20247;-75
2021/12/18 02:43:41;;;;;;;3.37;2.40;;;6.00;99.90;;;;;;5003087;28;20520;-76
2021/12/18 02:46:09;;;;;;;3.47;3.00;;;5.90;99.90;;;;;;5008152;28;20192;-68
2021/12/18 02:48:37;;;;;;;3.80;2.50;;;5.90;99.90;;;;;;5006723;28;20659;-69
2021/12/18 02:51:08;;;;;;;3.67;3.27;;;5.90;99.90;;;;;;5008007;28;20196;-69
2021/12/18 02:53:36;;;;;;;2.97;2.70;;;5.90;99.90;;;;;;5016605;28;20223;-67
2021/12/18 02:56:06;;;;;;;3.87;3.17;;;5.90;99.90;;;;;;5045627;28;20175;-67
2021/12/18 02:58:36;;;;;;;2.37;2.17;;;5.90;99.90;;;;;;5039109;28;20194;-68
2021/12/18 03:01:05;;;;;;;3.00;2.40;;;5.90;99.90;;;;;;5033192;28;20349;-67
2021/12/18 03:03:34;;;;;;;2.77;2.37;;;5.90;99.90;;;;;;5038376;28;20851;-68
2021/12/18 03:06:19;;;;;;;3.30;2.63;;;5.90;99.90;;;;;;5031921;28;20176;-69
2021/12/18 03:08:57;;;;;;;4.67;3.10;;;5.90;99.90;;;;;;5033511;28;20206;-65
2021/12/18 03:24:59;;;;;;;3.73;3.27;;;6.00;99.90;;;;;;5036012;28;20658;-68
2021/12/18 03:27:26;;;;;;;4.30;3.33;;;5.90;99.90;;;;;;5038466;28;20211;-69
2021/12/18 03:29:52;;;;;;;5.03;3.90;;;5.90;99.90;;;;;;5050708;28;20211;-68
2021/12/18 03:32:18;;;;;;;5.10;4.60;;;5.90;99.90;;;;;;5044273;28;20206;-70
2021/12/18 03:34:44;;;;;;;3.87;3.30;;;5.80;99.90;;;;;;5039699;28;20655;-68
2021/12/18 03:37:10;;;;;;;4.83;3.17;;;5.80;99.90;;;;;;5036752;28;20210;-69
2021/12/18 03:39:36;;;;;;;3.70;3.40;;;5.80;99.90;;;;;;5038286;28;20332;-68
2021/12/18 03:42:04;;;;;;;4.90;3.53;;;5.80;99.90;;;;;;5044807;28;20218;-69
2021/12/18 03:44:30;;;;;;;3.80;3.40;;;5.80;99.90;;;;;;5041774;28;20270;-69
2021/12/18 03:46:56;;;;;;;4.63;3.60;;;5.80;99.90;;;;;;5040485;28;20187;-70
2021/12/18 03:49:22;;;;;;;6.03;3.97;;;5.80;99.90;;;;;;5039289;28;20250;-68
2021/12/18 03:51:47;;;;;;;5.80;3.80;;;5.80;99.90;;;;;;5045480;28;20206;-69
2021/12/18 03:54:13;;;;;;;4.53;3.67;;;5.80;99.90;;;;;;5044059;28;20222;-71
2021/12/18 03:56:38;;;;;;;4.50;3.93;;;5.80;99.90;;;;;;5034286;28;20563;-68
2021/12/18 03:59:04;;;;;;;3.60;3.23;;;5.80;99.90;;;;;;5048069;28;20237;-69
2021/12/18 04:01:29;;;;;;;5.73;3.97;;;5.70;99.90;;;;;;5047701;28;20217;-70
2021/12/18 04:03:55;;;;;;;5.30;4.03;;;5.70;99.90;;;;;;5044690;28;20200;-68
2021/12/18 04:06:20;;;;;;;5.40;4.00;;;5.70;99.90;;;;;;5039872;28;20542;-70
2021/12/18 04:08:46;;;;;;;5.07;3.93;;;5.70;99.90;;;;;;5043982;28;20245;-67
2021/12/18 04:11:12;;;;;;;5.20;3.43;;;5.70;99.90;;;;;;5030827;28;20282;-67
2021/12/18 04:13:43;;;;;;;4.30;3.57;;;5.70;99.90;;;;;;5037203;28;20203;-69
2021/12/18 04:16:08;;;;;;;6.60;3.47;;;5.70;99.90;;;;;;5039420;28;20186;-68
2021/12/18 04:18:34;;;;;;;3.93;3.27;;;5.70;99.90;;;;;;5044288;28;20214;-71
2021/12/18 04:20:59;;;;;;;4.20;3.10;;;5.70;99.90;;;;;;5044574;28;20305;-68
2021/12/18 04:23:25;;;;;;;4.23;3.47;;;5.70;99.90;;;;;;5046338;28;20214;-69
2021/12/18 04:25:51;;;;;;;4.27;3.70;;;5.70;99.90;;;;;;5040661;28;20194;-67
2021/12/18 04:28:16;;;;;;;4.87;3.30;;;5.70;99.90;;;;;;5040480;28;20290;-69
2021/12/18 04:30:42;;;;;;;4.50;4.03;;;5.70;99.90;;;;;;5038732;28;20170;-68
2021/12/18 04:33:07;;;;;;;4.07;2.93;;;5.70;99.90;;;;;;5030119;28;20928;-68
2021/12/18 04:35:33;;;;;;;2.70;2.50;;;5.70;99.90;;;;;;5038368;28;20179;-68
2021/12/18 04:37:58;;;;;;;3.40;3.03;;;5.70;99.90;;;;;;5045171;28;20210;-66
2021/12/18 04:40:26;;;;;;;3.93;2.63;;;5.70;99.90;;;;;;5035274;28;20207;-68
2021/12/18 04:42:53;;;;;;;4.73;2.80;;;5.70;99.90;;;;;;5057367;28;20206;-68
2021/12/18 04:45:18;;;;;;;3.13;2.80;;;5.70;99.90;;;;;;5036735;28;20206;-67
2021/12/18 04:47:44;;;;;;;2.30;2.10;;;5.70;99.90;;;;;;5039970;28;20290;-71
2021/12/18 04:50:09;;;;;;;4.50;3.00;;;5.80;99.90;;;;;;5036167;28;20191;-70
2021/12/18 04:52:35;;;;;;;4.00;3.30;;;5.80;99.90;;;;;;5036558;28;20290;-70
2021/12/18 04:55:00;;;;;;;3.60;2.87;;;5.80;99.90;;;;;;5037679;28;20737;-69
2021/12/18 04:57:26;;;;;;;3.93;2.90;;;5.80;99.90;;;;;;5036816;28;20585;-72
2021/12/18 04:59:51;;;;;;;3.67;3.03;;;5.80;99.90;;;;;;5034880;28;20194;-73
2021/12/18 05:02:20;;;;;;;3.63;3.00;;;5.90;99.90;;;;;;5039407;28;20198;-69
2021/12/18 05:04:46;;;;;;;3.97;3.17;;;5.90;99.90;;;;;;5038131;28;20203;-67
2021/12/18 05:07:12;;;;;;;2.30;2.10;;;6.00;99.90;;;;;;5043475;28;20183;-66
2021/12/18 05:09:41;;;;;;;8.47;4.83;;;6.00;99.90;;;;;;5035216;28;20191;-66
2021/12/18 05:12:08;;;;;;;3.07;2.83;;;6.00;99.90;;;;;;5041137;28;20320;-68
2021/12/18 05:14:34;;;;;;;2.97;2.67;;;6.00;99.90;;;;;;5041168;28;20199;-67
2021/12/18 05:17:00;;;;;;;3.10;2.70;;;6.10;99.90;;;;;;5045012;28;20672;-67
2021/12/18 05:19:25;;;;;;;2.60;2.40;;;6.10;99.90;;;;;;5040276;28;20668;-67
2021/12/18 05:21:51;;;;;;;3.53;3.20;;;6.10;99.90;;;;;;5045972;28;20202;-66
2021/12/18 05:24:16;;;;;;;4.13;2.43;;;6.10;99.90;;;;;;5039538;28;20195;-67
2021/12/18 05:26:41;;;;;;;3.97;3.23;;;6.00;99.90;;;;;;5043507;28;20178;-66
2021/12/18 05:29:07;;;;;;;2.70;2.50;;;6.00;99.90;;;;;;5039999;28;20191;-67
2021/12/18 05:31:33;;;;;;;2.60;2.30;;;6.00;99.90;;;;;;5042672;28;20195;-67
2021/12/18 05:34:00;;;;;;;3.33;2.90;;;6.00;99.90;;;;;;5041564;28;20252;-66
2021/12/18 05:38:55;;;;;;;4.53;3.07;;;6.00;99.90;;;;;;5042796;28;20194;-68
2021/12/18 05:41:21;;;;;;;3.17;2.60;;;6.00;99.90;;;;;;5042779;28;20226;-67
2021/12/18 05:43:46;;;;;;;3.27;2.90;;;5.90;99.90;;;;;;5039393;28;20285;-66
2021/12/18 05:46:12;;;;;;;4.43;3.00;;;5.90;99.90;;;;;;5044536;28;20183;-67
2021/12/18 05:48:37;;;;;;;4.63;3.20;;;6.00;99.90;;;;;;5038112;28;20199;-66
2021/12/18 05:51:05;;;;;;;2.63;2.17;;;6.00;99.90;;;;;;5043850;28;20194;-67
2021/12/18 05:53:31;;;;;;;3.03;2.63;;;6.00;99.90;;;;;;5040141;28;20584;-67
2021/12/18 05:55:56;;;;;;;3.53;2.87;;;6.00;99.90;;;;;;5045770;28;20270;-66
2021/12/18 05:58:22;;;;;;;3.93;3.53;;;6.00;99.90;;;;;;5038616;28;20859;-67
2021/12/18 06:00:47;;;;;;;2.70;2.50;;;6.00;99.90;;;;;;5042984;28;20202;-67
2021/12/18 06:03:13;;;;;;;3.00;2.70;;;6.00;99.90;;;;;;5043365;28;20317;-67
2021/12/18 06:05:38;;;;;;;3.53;2.77;;;6.00;99.90;;;;;;5041037;28;20171;-67
2021/12/18 06:08:09;;;;;;;3.37;3.00;;;6.00;99.90;;;;;;5037843;28;20764;-67
2021/12/18 06:10:36;;;;;;;4.60;3.37;;;6.10;99.90;;;;;;5040349;28;20182;-65
2021/12/18 06:13:03;;;;;;;4.93;3.43;;;6.10;99.90;;;;;;5035997;28;20302;-67
2021/12/18 06:15:30;;;;;;;3.97;3.30;;;6.10;99.90;;;;;;5031063;28;20253;-66
2021/12/18 06:17:56;;;;;;;4.27;3.40;;;6.00;99.90;;;;;;5042559;28;20198;-67
2021/12/18 06:20:22;;;;;;;4.27;3.50;;;6.00;99.90;;;;;;5036100;28;20213;-67
2021/12/18 06:22:48;;;;;;;4.27;3.77;;;6.00;99.90;;;;;;5053729;28;20195;-66
2021/12/18 06:25:13;;;;;;;3.43;3.13;;;6.00;99.90;;;;;;5032748;28;20188;-67
2021/12/18 06:27:39;;;;;;;5.23;3.00;;;6.00;99.90;;;;;;5041883;28;20205;-66
2021/12/18 06:30:06;;;;;;;3.83;2.73;;;6.00;99.90;;;;;;5034144;28;20179;-65
2021/12/18 06:32:31;;;;;;;3.83;3.53;;;6.00;99.90;;;;;;5051884;28;20195;-66
2021/12/18 06:34:57;;;;;;;3.30;2.93;;;5.90;99.90;;;;;;5043514;28;20190;-66
2021/12/18 06:37:22;;;;;;;3.90;3.40;;;5.90;99.90;;;;;;5049090;28;20213;-65
2021/12/18 06:39:48;;;;;;;3.63;3.20;;;5.90;99.90;;;;;;5046590;28;20772;-65
2021/12/18 06:42:13;;;;;;;3.10;2.80;;;5.90;99.90;;;;;;5059876;28;20202;-66
2021/12/18 06:44:39;;;;;;;3.03;2.30;;;5.90;99.90;;;;;;5038379;28;20630;-67
2021/12/18 06:47:04;;;;;;;2.97;2.67;;;5.90;99.90;;;;;;5057348;28;20201;-66
2021/12/18 06:49:30;;;;;;;3.27;2.40;;;5.90;99.90;;;;;;5035426;28;20206;-66
2021/12/18 06:51:55;;;;;;;3.47;2.60;;;6.00;99.90;;;;;;5058211;28;20194;-67
2021/12/18 06:54:21;;;;;;;2.50;2.30;;;6.00;99.90;;;;;;5036577;28;20663;-68
2021/12/18 06:56:46;;;;;;;3.67;2.73;;;6.00;99.90;;;;;;5055228;28;20223;-65
2021/12/18 06:59:12;;;;;;;3.40;2.83;;;5.90;99.90;;;;;;5035585;28;20203;-64
2021/12/18 07:01:37;;;;;;;2.67;1.90;;;5.90;99.90;;;;;;5060157;28;20676;-64
2021/12/18 07:04:03;;;;;;;3.43;2.83;;;5.90;99.90;;;;;;5038575;28;20200;-64
2021/12/18 07:06:29;;;;;;;3.27;2.97;;;5.90;99.90;;;;;;5067269;28;20255;-63
2021/12/18 07:08:54;;;;;;;2.23;2.10;;;5.90;99.90;;;;;;5041389;28;20293;-62
2021/12/18 07:11:20;;;;;;;4.27;3.00;;;5.90;99.90;;;;;;5058015;28;20554;-62
2021/12/18 07:13:46;;;;;;;3.90;2.77;;;5.90;99.90;;;;;;5051806;28;20199;-62
2021/12/18 07:16:11;;;;;;;2.87;2.67;;;5.90;99.90;;;;;;5063059;28;20201;-63
2021/12/18 07:18:37;;;;;;;3.67;3.30;;;5.90;99.90;;;;;;5054336;28;20202;-63
2021/12/18 07:21:03;;;;;;;4.30;3.87;;;5.80;99.90;;;;;;5046966;28;20215;-63
2021/12/18 07:23:28;;;;;;;3.90;3.50;;;5.80;99.90;;;;;;5054848;28;20653;-63
2021/12/18 07:25:54;;;;;;;4.67;3.80;;;5.80;99.90;;;;;;5049484;28;20190;-64
2021/12/18 07:28:19;;;;;;;3.93;3.63;;;5.80;99.90;;;;;;5054370;28;20229;-63
2021/12/18 07:30:45;;;;;;;3.97;2.97;;;5.80;99.90;;;;;;5054179;28;20194;-62
2021/12/18 07:33:11;;;;;;;4.63;3.37;;;5.80;99.90;;;;;;5048840;28;20198;-64
2021/12/18 07:35:40;;;;;;;3.43;2.87;;;5.80;99.90;;;;;;5033541;28;20183;-64
2021/12/18 07:38:07;;;;;;;3.13;2.50;;;5.80;99.90;;;;;;5054405;28;20290;-64
2021/12/18 07:40:33;;;;;;;3.23;2.90;;;5.80;99.90;;;;;;5029082;28;20661;-64
2021/12/18 07:42:58;;;;;;;3.67;2.87;;;5.80;99.90;;;;;;5050757;28;20203;-64
2021/12/18 07:45:24;;;;;;;5.93;4.17;;;5.80;99.90;;;;;;5029925;28;20882;-64
2021/12/18 07:47:50;;;;;;;4.70;3.77;;;5.90;99.90;;;;;;5056289;28;20721;-64
2021/12/18 07:50:19;;;;;;;4.77;4.30;;;5.90;99.90;;;;;;5034490;28;20195;-64
2021/12/18 07:52:46;;;;;;;5.97;4.53;;;5.80;99.90;;;;;;5048336;28;20618;-64
2021/12/18 07:55:11;;;;;;;4.70;4.27;;;5.80;99.90;;;;;;5037906;28;20293;-63
2021/12/18 07:57:37;;;;;;;6.67;4.37;;;5.80;99.90;;;;;;5060828;28;20340;-64
2021/12/18 08:00:09;;;;;;;4.60;3.90;;;5.80;99.90;;;;;;5032761;28;20187;-64
2021/12/18 08:02:35;;;;;;;6.60;4.03;;;5.80;99.90;;;;;;5038136;28;20563;-63
2021/12/18 08:05:01;;;;;;;6.03;4.03;;;5.80;99.90;;;;;;5046836;28;20182;-63
2021/12/18 08:07:27;;;;;;;3.87;3.47;;;5.70;99.90;;;;;;5050809;28;20271;-64
2021/12/18 08:09:52;;;;;;;5.27;3.63;;;5.70;99.90;;;;;;5038674;28;20449;-64
2021/12/18 08:12:18;;;;;;;4.17;3.70;;;5.60;99.90;;;;;;5053084;28;20195;-63
2021/12/18 08:14:43;;;;;;;3.73;3.27;;;5.70;99.90;;;;;;5031791;28;20214;-63
2021/12/18 08:17:09;;;;;;;4.40;3.70;;;5.60;99.90;;;;;;5050393;28;20199;-63
2021/12/18 08:19:34;;;;;;;4.83;4.33;;;5.70;99.90;;;;;;5037242;28;20337;-63
2021/12/18 08:22:00;;;;;;;3.83;2.90;;;5.60;99.90;;;;;;5053087;28;20690;-64
2021/12/18 08:24:25;;;;;;;2.00;1.80;;;5.60;99.90;;;;;;5045708;28;20221;-64
2021/12/18 08:26:51;;;;;;;1.83;1.57;;;5.50;99.90;;;;;;5048963;28;20230;-63
2021/12/18 08:29:16;;;;;;;1.53;1.43;;;5.50;99.90;;;;;;5038729;28;20214;-63
2021/12/18 08:31:42;;;;;;;1.57;1.47;;;5.50;99.90;;;;;;5049723;28;20206;-63
2021/12/18 08:34:07;;;;;;;1.87;1.70;;;5.50;99.90;;;;;;5033869;28;20203;-63
2021/12/18 08:36:33;;;;;;;1.33;1.23;;;5.50;99.90;;;;;;5044837;28;20245;-63
2021/12/18 08:38:58;;;;;;;2.67;1.77;;;5.60;99.90;;;;;;5049432;28;20190;-63
2021/12/18 08:41:24;;;;;;;2.97;2.33;;;5.60;99.90;;;;;;5047942;28;20225;-63
2021/12/18 08:43:50;;;;;;;2.10;2.00;;;5.60;99.90;;;;;;5039266;28;20191;-62
2021/12/18 08:46:16;;;;;;;2.40;2.20;;;5.60;99.90;;;;;;5061431;28;20191;-61
2021/12/18 08:48:42;;;;;;;2.00;1.80;;;5.60;99.90;;;;;;5052134;28;20243;-62
2021/12/18 08:51:07;;;;;;;2.10;1.60;;;5.60;99.90;;;;;;5043652;28;20195;-62
2021/12/18 08:53:33;;;;;;;2.80;2.47;;;5.70;99.90;;;;;;5052189;28;20701;-62
2021/12/18 08:55:58;;;;;;;2.77;2.50;;;5.70;99.90;;;;;;5051646;28;20244;-62
2021/12/18 08:58:24;;;;;;;3.37;2.77;;;5.70;99.90;;;;;;5045562;28;20585;-61
2021/12/18 09:00:49;;;;;;;2.83;2.10;;;5.70;99.90;;;;;;5053665;28;20210;-62
2021/12/18 09:03:15;;;;;;;2.77;2.57;;;5.80;99.90;;;;;;5054868;28;20202;-63
2021/12/18 09:05:41;;;;;;;2.73;2.53;;;5.80;99.90;;;;;;5036879;28;20260;-63
2021/12/18 09:08:07;;;;;;;3.17;2.87;;;5.80;99.90;;;;;;5041555;28;20625;-63
2021/12/18 09:10:33;;;;;;;4.83;3.90;;;5.80;99.90;;;;;;5034877;28;20175;-63
2021/12/18 09:12:59;;;;;;;3.57;3.27;;;5.80;99.90;;;;;;5044665;28;20249;-63
2021/12/18 09:15:24;;;;;;;3.83;3.13;;;5.80;99.90;;;;;;5028504;28;20574;-63
2021/12/18 09:17:50;;;;;;;2.83;2.63;;;5.80;99.90;;;;;;5042020;28;20199;-63
2021/12/18 09:20:16;;;;;;;4.23;3.80;;;5.80;99.90;;;;;;5036469;28;20201;-63
2021/12/18 09:22:41;;;;;;;3.17;2.80;;;5.90;99.90;;;;;;5043527;28;20699;-63
2021/12/18 09:25:08;;;;;;;5.43;3.23;;;5.90;99.90;;;;;;5035116;28;20191;-63
2021/12/18 09:27:34;;;;;;;4.63;3.57;;;5.90;99.90;;;;;;5046360;28;20191;-64
2021/12/18 09:30:00;;;;;;;4.43;3.73;;;6.00;99.90;;;;;;5039279;28;20180;-64
2021/12/18 09:32:25;;;;;;;4.33;3.93;;;6.00;99.90;;;;;;5052759;28;20252;-64
2021/12/18 09:34:51;;;;;;;4.50;3.70;;;6.00;99.90;;;;;;5042567;28;20175;-63
2021/12/18 09:37:17;;;;;;;7.03;5.00;;;6.00;99.90;;;;;;5038684;28;20223;-63
2021/12/18 09:39:42;;;;;;;8.83;5.10;;;6.00;99.90;;;;;;5038058;28;20202;-62
2021/12/18 09:42:08;;;;;;;5.07;4.03;;;6.00;99.90;;;;;;5040798;28;20318;-64
2021/12/18 09:44:34;;;;;;;6.33;4.73;;;6.00;99.90;;;;;;5038975;28;20686;-63
2021/12/18 09:47:01;;;;;;;5.10;4.30;;;6.10;99.90;;;;;;5042277;28;20183;-63
2021/12/18 09:49:27;;;;;;;8.40;4.30;;;6.20;99.90;;;;;;5041050;28;20283;-65
2021/12/18 09:51:53;;;;;;;6.60;4.33;;;6.20;99.90;;;;;;5056367;28;20604;-71
2021/12/18 09:54:23;;;;;;;4.03;3.57;;;6.20;99.90;;;;;;5039473;28;20225;-72
2021/12/18 09:56:49;;;;;;;4.30;3.70;;;6.20;99.90;;;;;;5050561;28;20202;-71
2021/12/18 09:59:15;;;;;;;3.70;3.40;;;6.20;99.90;;;;;;5043044;28;20198;-70
2021/12/18 10:01:41;;;;;;;6.63;3.87;;;6.20;99.90;;;;;;5041292;28;20226;-70
2021/12/18 10:04:32;;;;;;;6.17;3.43;;;6.20;99.90;;;;;;5048144;28;20224;-70
2021/12/18 10:06:59;;;;;;;4.67;3.63;;;6.20;99.90;;;;;;5044105;28;20194;-70
2021/12/18 10:09:25;;;;;;;4.13;3.53;;;6.30;99.90;;;;;;5048903;28;20197;-70
2021/12/18 10:11:54;;;;;;;4.90;3.67;;;6.30;99.90;;;;;;5045135;28;20277;-70
2021/12/18 10:14:38;;;;;;;3.13;2.63;;;6.30;99.90;;;;;;5046516;28;20175;-70
2021/12/18 10:17:16;;;;;;;5.47;4.30;;;6.30;99.90;;;;;;5041693;28;20211;-70
2021/12/18 10:19:42;;;;;;;5.33;3.23;;;6.40;99.90;;;;;;5033194;28;20195;-71
2021/12/18 10:22:10;;;;;;;3.60;2.63;;;6.40;99.90;;;;;;5037315;28;20223;-70
2021/12/18 10:24:42;;;;;;;3.67;2.73;;;6.40;99.90;;;;;;5055000;28;20272;-69
2021/12/18 10:27:20;;;;;;;3.53;2.93;;;6.30;99.90;;;;;;5035068;28;20517;-69
2021/12/18 10:29:47;;;;;;;3.73;2.27;;;6.40;99.90;;;;;;5047576;28;20294;-70
2021/12/18 10:32:16;;;;;;;3.63;3.10;;;6.40;99.90;;;;;;5052384;28;20241;-69
2021/12/18 10:34:48;;;;;;;3.93;2.53;;;6.50;99.90;;;;;;5055356;28;20202;-70
2021/12/18 10:37:21;;;;;;;3.80;2.90;;;6.40;99.90;;;;;;5044625;28;20231;-69
2021/12/18 10:39:53;;;;;;;3.17;2.63;;;6.40;99.90;;;;;;5041442;28;20526;-74
2021/12/18 10:42:29;;;;;;;3.87;3.10;;;6.50;99.90;;;;;;5063525;28;20297;-68
2021/12/18 10:45:07;;;;;;;4.37;2.53;;;6.50;99.90;;;;;;5040684;28;20195;-68
2021/12/18 10:47:43;;;;;;;3.60;2.40;;;6.50;99.90;;;;;;5049147;28;20186;-69
2021/12/18 10:50:34;;;;;;;7.87;3.13;;;6.50;99.90;;;;;;5032558;28;20199;-71
2021/12/18 10:53:34;;;;;;;3.33;2.70;;;6.50;99.90;;;;;;5045927;28;20194;-74
2021/12/18 10:56:02;;;;;;;3.27;2.57;;;6.50;99.90;;;;;;5011208;28;20202;-70
2021/12/18 10:58:33;;;;;;;3.90;3.33;;;6.80;99.90;;;;;;5055222;28;20754;-71
2021/12/18 11:01:11;;;;;;;3.60;3.13;;;7.00;99.90;;;;;;5033203;28;20243;-70
2021/12/18 11:03:44;;;;;;;3.80;3.07;;;7.20;99.90;;;;;;5033335;28;20212;-70
2021/12/18 11:06:11;;;;;;;3.53;3.17;;;7.20;99.90;;;;;;5039619;28;20183;-69
2021/12/18 11:08:56;;;;;;;5.20;3.17;;;7.20;99.90;;;;;;5040472;28;20188;-68
2021/12/18 11:14:15;;;;;;;3.60;2.50;;;7.30;99.90;;;;;;5035599;28;20639;-68
2021/12/18 11:16:44;;;;;;;4.07;3.07;;;7.40;99.90;;;;;;5047035;28;20190;-67
2021/12/18 11:19:18;;;;;;;4.60;3.63;;;7.50;99.90;;;;;;5046353;28;20209;-67
2021/12/18 11:21:49;;;;;;;3.70;2.87;;;7.50;99.90;;;;;;5045862;28;20652;-71
2021/12/18 11:24:16;;;;;;;6.00;3.90;;;7.50;99.90;;;;;;5041421;28;20295;-70
2021/12/18 11:26:58;;;;;;;5.83;3.50;;;7.30;99.90;;;;;;5046514;28;20664;-69
2021/12/18 11:29:39;;;;;;;4.50;3.17;;;7.20;99.90;;;;;;5039457;28;20191;-70
2021/12/18 11:32:06;;;;;;;2.97;2.27;;;7.00;99.90;;;;;;5043711;28;20274;-67
2021/12/18 11:34:32;;;;;;;9.40;5.60;;;6.90;99.90;;;;;;5042574;28;20295;-67
2021/12/18 11:36:59;;;;;;;4.37;2.77;;;6.80;99.90;;;;;;5046821;28;20282;-70
2021/12/18 11:39:29;;;;;;;3.83;2.90;;;6.80;99.90;;;;;;5044803;28;20248;-68
2021/12/18 11:41:55;;;;;;;2.97;2.67;;;6.80;99.90;;;;;;5046457;28;20238;-69
2021/12/18 11:44:41;;;;;;;2.23;1.90;;;6.80;99.90;;;;;;5045410;28;20245;-71
2021/12/18 11:47:27;;;;;;;1.87;1.77;;;6.80;99.90;;;;;;5043175;28;20185;-71
2021/12/18 11:49:56;;;;;;;2.80;2.50;;;6.80;99.90;;;;;;5039569;28;20195;-71
2021/12/18 11:52:22;;;;;;;2.63;2.23;;;6.80;99.90;;;;;;5045533;28;20183;-72
2021/12/18 11:55:00;;;;;;;4.10;2.13;;;6.80;99.90;;;;;;5041325;28;20292;-69
2021/12/18 11:57:48;;;;;;;2.67;1.93;;;6.90;99.90;;;;;;5046765;28;20202;-70
2021/12/18 12:00:21;;;;;;;2.87;2.10;;;6.90;99.90;;;;;;5039466;28;20332;-70
2021/12/18 12:02:58;;;;;;;2.00;1.53;;;6.90;99.90;;;;;;5050545;28;20205;-69
2021/12/18 12:05:57;;;;;;;2.83;1.70;;;6.90;99.90;;;;;;5032447;28;20978;-71
2021/12/18 12:08:40;;;;;;;2.37;1.50;;;6.90;99.90;;;;;;5023822;28;20254;-71
2021/12/18 12:11:16;;;;;;;2.60;2.40;;;6.90;99.90;;;;;;5046621;28;20182;-70
2021/12/18 12:14:08;;;;;;;1.60;1.50;;;6.90;99.90;;;;;;5024956;28;20991;-71
2021/12/18 12:16:46;;;;;;;1.60;1.50;;;6.90;99.90;;;;;;5040272;28;20183;-70
2021/12/18 12:19:21;;;;;;;2.03;1.83;;;7.00;99.90;;;;;;5042959;28;20230;-81
2021/12/18 12:21:49;;;;;;;2.53;1.73;;;6.90;99.90;;;;;;5037860;28;20210;-73
2021/12/18 12:24:20;;;;;;;2.67;1.47;;;7.00;99.90;;;;;;5038424;28;20623;-71
2021/12/18 12:26:48;;;;;;;1.87;1.50;;;6.90;99.90;;;;;;5044176;28;20321;-71
2021/12/18 12:29:15;;;;;;;3.73;1.70;;;6.90;99.90;;;;;;5037110;28;20575;-70
2021/12/18 12:31:55;;;;;;;2.33;1.87;;;6.90;99.90;;;;;;5043662;28;20534;-70
2021/12/18 12:34:33;;;;;;;6.00;1.83;;;6.90;99.90;;;;;;5044186;28;20244;-71
2021/12/18 12:37:24;;;;;;;1.97;1.77;;;6.90;99.90;;;;;;5041081;28;20306;-78
2021/12/18 12:39:54;;;;;;;2.90;1.97;;;6.90;99.90;;;;;;5042566;28;20199;-71
2021/12/18 12:42:20;;;;;;;3.70;2.00;;;6.90;99.90;;;;;;5058249;28;20297;-71
2021/12/18 12:45:01;;;;;;;2.87;2.43;;;6.90;99.90;;;;;;5054707;28;20286;-71
2021/12/18 12:47:28;;;;;;;3.30;2.57;;;7.00;99.90;;;;;;5028649;28;20684;-71
2021/12/18 12:50:14;;;;;;;2.20;1.40;;;7.00;99.90;;;;;;5033814;28;20198;-72
2021/12/18 12:52:58;;;;;;;2.23;1.83;;;7.00;99.90;;;;;;5035769;28;20589;-71
2021/12/18 12:55:28;;;;;;;4.70;2.13;;;7.00;99.90;;;;;;5032606;28;20202;-72
2021/12/18 12:57:55;;;;;;;3.77;2.27;;;7.00;99.90;;;;;;5031954;28;20218;-71
2021/12/18 13:00:21;;;;;;;3.20;2.20;;;7.00;99.90;;;;;;5033529;28;20583;-72
2021/12/18 13:02:53;;;;;;;3.20;1.90;;;7.00;99.90;;;;;;5041239;28;20199;-71
2021/12/18 13:05:20;;;;;;;3.77;2.93;;;7.00;99.90;;;;;;5041820;28;20766;-70
2021/12/18 13:08:00;;;;;;;4.00;2.93;;;7.00;99.90;;;;;;5055684;28;20202;-72
2021/12/18 13:10:54;;;;;;;2.90;2.03;;;7.00;99.90;;;;;;5036471;28;20692;-71
2021/12/18 13:13:24;;;;;;;1.50;1.40;;;7.00;99.90;;;;;;5034246;28;20685;-71
2021/12/18 13:15:52;;;;;;;1.90;1.50;;;6.90;99.90;;;;;;5037671;28;20207;-72
2021/12/18 13:18:20;;;;;;;2.00;1.80;;;7.00;99.90;;;;;;5052441;28;20194;-71
2021/12/18 13:20:59;;;;;;;2.17;1.97;;;7.00;99.90;;;;;;5041950;28;20219;-71
2021/12/18 13:23:38;;;;;;;2.60;2.40;;;7.00;99.90;;;;;;5023792;28;20303;-71
2021/12/18 13:26:06;;;;;;;1.77;1.60;;;7.00;99.90;;;;;;5044627;28;20213;-70
2021/12/18 13:28:32;;;;;;;2.27;2.03;;;7.00;99.90;;;;;;5038226;28;20203;-71
2021/12/18 13:30:57;;;;;;;2.10;2.00;;;7.00;99.90;;;;;;5046799;28;20210;-71
2021/12/18 13:33:25;;;;;;;2.60;1.50;;;7.10;99.90;;;;;;5046026;28;20712;-70
2021/12/18 13:35:57;;;;;;;1.70;1.60;;;7.10;99.90;;;;;;5047993;28;20289;-71
2021/12/18 13:38:23;;;;;;;1.20;1.10;;;7.10;99.90;;;;;;5052159;28;20256;-70
2021/12/18 13:40:50;;;;;;;1.73;1.10;;;7.10;99.90;;;;;;5047679;28;20818;-70
2021/12/18 13:43:19;;;;;;;1.00;1.00;;;7.10;99.90;;;;;;5046513;28;20207;-70
2021/12/18 13:45:59;;;;;;;1.30;1.20;;;7.10;99.90;;;;;;5053087;28;20195;-70
2021/12/18 13:48:28;;;;;;;1.30;1.17;;;7.10;99.90;;;;;;5039413;28;20202;-70